createdAt,value
2019-05-22T00:02:41.701Z,101440.44
2019-05-22T00:06:05.982Z,101433.86
2019-05-22T00:09:43.895Z,101437.92
2019-05-22T00:13:09.851Z,101441.98
2019-05-22T00:16:33.959Z,101442.31
2019-05-22T00:19:57.760Z,101440.78
2019-05-22T00:23:22.010Z,101435.85
2019-05-22T00:26:45.998Z,101435.47
2019-05-22T00:30:13.211Z,101444.40
2019-05-22T00:33:36.606Z,101441.95
2019-05-22T00:37:00.555Z,101442.50
2019-05-22T00:40:26.973Z,101443.56
2019-05-22T00:43:50.921Z,101441.36
2019-05-22T00:47:14.271Z,101447.11
2019-05-22T00:50:44.199Z,101448.86
2019-05-22T00:54:13.997Z,101461.14
2019-05-22T00:57:46.746Z,101454.02
2019-05-22T01:01:19.673Z,101461.38
2019-05-22T01:04:43.018Z,101460.75
2019-05-22T01:08:06.430Z,101455.96
2019-05-22T01:11:31.497Z,101462.91
2019-05-22T01:14:57.188Z,101471.25
2019-05-22T01:18:22.733Z,101472.46
2019-05-22T01:21:46.583Z,101474.05
2019-05-22T01:25:13.881Z,101474.19
2019-05-22T01:28:38.177Z,101477.39
2019-05-22T01:32:12.932Z,101474.80
2019-05-22T01:35:36.397Z,101470.28
2019-05-22T01:39:36.320Z,101476.81
2019-05-22T01:43:02.938Z,101477.79
2019-05-22T01:46:27.923Z,101485.73
2019-05-22T01:49:53.477Z,101486.61
2019-05-22T01:53:20.957Z,101489.35
2019-05-22T01:56:45.406Z,101490.11
2019-05-22T02:00:11.107Z,101485.00
2019-05-22T02:03:36.038Z,101496.12
2019-05-22T02:07:00.734Z,101485.72
2019-05-22T02:10:31.373Z,101488.47
2019-05-22T02:14:09.423Z,101494.36
2019-05-22T02:17:34.709Z,101504.84
2019-05-22T02:20:58.512Z,101501.25
2019-05-22T02:24:22.281Z,101499.32
2019-05-22T02:27:45.924Z,101501.41
2019-05-22T02:31:11.374Z,101500.08
2019-05-22T02:34:35.128Z,101507.08
2019-05-22T02:37:58.414Z,101504.32
2019-05-22T02:41:24.308Z,101503.59
2019-05-22T02:44:48.117Z,101514.95
2019-05-22T02:48:13.289Z,101518.42
2019-05-22T02:51:37.488Z,101526.59
2019-05-22T02:55:01.663Z,101530.50
2019-05-22T02:58:26.862Z,101536.11
2019-05-22T03:01:50.672Z,101534.61
2019-05-22T03:05:14.622Z,101532.64
2019-05-22T03:09:15.650Z,101535.83
2019-05-22T03:12:40.258Z,101541.04
2019-05-22T03:16:03.598Z,101541.09
2019-05-22T03:19:42.097Z,101538.45
2019-05-22T03:23:36.083Z,101544.93
2019-05-22T03:26:59.484Z,101549.44
2019-05-22T03:30:26.748Z,101542.98
2019-05-22T03:33:50.102Z,101550.50
2019-05-22T03:37:14.105Z,101555.59
2019-05-22T03:40:37.799Z,101552.95
2019-05-22T03:44:03.068Z,101557.62
2019-05-22T03:47:27.543Z,101565.47
2019-05-22T03:50:55.975Z,101565.19
2019-05-22T03:54:19.703Z,101556.73
2019-05-22T03:57:44.970Z,101565.08
2019-05-22T04:01:08.472Z,101565.74
2019-05-22T04:04:36.046Z,101564.80
2019-05-22T04:08:03.010Z,101568.93
2019-05-22T04:11:34.394Z,101562.80
2019-05-22T04:14:58.251Z,101564.43
2019-05-22T04:18:24.023Z,101567.84
2019-05-22T04:21:47.527Z,101569.96
2019-05-22T04:25:12.123Z,101577.92
2019-05-22T04:28:45.459Z,101578.19
2019-05-22T04:32:16.649Z,101580.09
2019-05-22T04:35:41.043Z,101587.42
2019-05-22T04:39:11.798Z,101595.17
2019-05-22T04:42:35.097Z,101595.61
2019-05-22T04:46:02.755Z,101599.15
2019-05-22T04:49:26.111Z,101594.31
2019-05-22T04:52:57.982Z,101607.42
2019-05-22T04:56:22.287Z,101612.63
2019-05-22T04:59:45.417Z,101598.43
2019-05-22T05:03:10.550Z,101610.30
2019-05-22T05:06:36.852Z,101607.80
2019-05-22T05:10:00.174Z,101613.28
2019-05-22T05:13:24.135Z,101613.37
2019-05-22T05:16:48.603Z,101615.97
2019-05-22T05:20:22.023Z,101613.59
2019-05-22T05:23:38.165Z,101622.05
2019-05-22T05:27:02.604Z,101620.30
2019-05-22T05:30:26.820Z,101624.64
2019-05-22T05:34:32.936Z,101626.92
2019-05-22T05:37:56.227Z,101621.72
2019-05-22T05:41:19.440Z,101630.84
2019-05-22T05:44:42.525Z,101631.09
2019-05-22T05:48:08.476Z,101636.72
2019-05-22T05:51:42.370Z,101633.83
2019-05-22T05:55:06.875Z,101637.23
2019-05-22T05:58:31.680Z,101641.39
2019-05-22T06:01:59.834Z,101645.50
2019-05-22T06:05:23.521Z,101644.65
2019-05-22T06:08:48.035Z,101650.77
2019-05-22T06:12:12.401Z,101655.09
2019-05-22T06:15:58.439Z,101655.52
2019-05-22T06:19:23.485Z,101662.08
2019-05-22T06:23:49.277Z,101666.06
2019-05-22T06:27:43.688Z,101671.16
2019-05-22T06:31:12.951Z,101671.39
2019-05-22T06:34:37.119Z,101676.06
2019-05-22T06:38:45.591Z,101683.95
2019-05-22T06:42:13.454Z,101674.70
2019-05-22T06:45:37.077Z,101674.08
2019-05-22T06:49:05.785Z,101680.75
2019-05-22T06:52:29.002Z,101685.11
2019-05-22T06:55:52.243Z,101678.90
2019-05-22T06:59:15.579Z,101680.77
2019-05-22T07:02:38.753Z,101683.34
2019-05-22T07:06:03.286Z,101691.44
2019-05-22T07:09:28.381Z,101690.08
2019-05-22T07:12:51.509Z,101693.02
2019-05-22T07:16:18.817Z,101692.24
2019-05-22T07:19:43.233Z,101695.31
2019-05-22T07:23:08.015Z,101691.98
2019-05-22T07:26:32.000Z,101688.70
2019-05-22T07:29:55.882Z,101702.16
2019-05-22T07:33:20.383Z,101701.17
2019-05-22T07:36:44.855Z,101705.66
2019-05-22T07:40:10.036Z,101700.41
2019-05-22T07:43:33.687Z,101701.17
2019-05-22T07:46:57.429Z,101707.59
2019-05-22T07:50:23.732Z,101712.05
2019-05-22T07:53:46.941Z,101709.20
2019-05-22T07:57:10.703Z,101718.95
2019-05-22T08:00:34.874Z,101707.24
2019-05-22T08:04:01.548Z,101718.11
2019-05-22T08:07:27.623Z,101715.78
2019-05-22T08:10:53.151Z,101713.62
2019-05-22T08:14:18.121Z,101717.65
2019-05-22T08:17:41.814Z,101715.55
2019-05-22T08:21:05.524Z,101716.67
2019-05-22T08:24:28.878Z,101718.55
2019-05-22T08:27:52.329Z,101717.02
2019-05-22T08:31:20.100Z,101714.97
2019-05-22T08:34:44.240Z,101722.86
2019-05-22T08:38:09.426Z,101722.35
2019-05-22T08:41:38.449Z,101722.75
2019-05-22T08:45:03.290Z,101718.28
2019-05-22T08:48:27.680Z,101723.20
2019-05-22T08:51:50.948Z,101725.43
2019-05-22T08:55:15.146Z,101732.14
2019-05-22T08:58:41.684Z,101731.06
2019-05-22T09:02:42.263Z,101724.13
2019-05-22T09:06:10.002Z,101728.34
2019-05-22T09:09:33.081Z,101722.86
2019-05-22T09:12:56.436Z,101720.91
2019-05-22T09:16:20.193Z,101732.09
2019-05-22T09:19:44.475Z,101730.64
2019-05-22T09:23:09.912Z,101730.56
2019-05-22T09:26:33.134Z,101731.44
2019-05-22T09:29:56.346Z,101727.11
2019-05-22T09:33:19.804Z,101728.20
2019-05-22T09:36:43.840Z,101724.64
2019-05-22T09:40:07.439Z,101713.81
2019-05-22T09:43:30.891Z,101717.31
2019-05-22T09:46:54.669Z,101715.83
2019-05-22T09:50:18.547Z,101717.75
2019-05-22T09:53:42.696Z,101717.44
2019-05-22T09:57:07.103Z,101718.89
2019-05-22T10:00:31.234Z,101724.94
2019-05-22T10:03:54.624Z,101725.97
2019-05-22T10:07:18.104Z,101731.28
2019-05-22T10:10:41.533Z,101728.46
2019-05-22T10:14:05.703Z,101726.03
2019-05-22T10:17:29.743Z,101728.05
2019-05-22T10:20:53.613Z,101721.86
2019-05-22T10:24:17.506Z,101722.66
2019-05-22T10:27:41.826Z,101730.36
2019-05-22T10:31:05.027Z,101726.73
2019-05-22T10:34:28.322Z,101722.55
2019-05-22T10:37:52.005Z,101722.87
2019-05-22T10:41:15.166Z,101725.53
2019-05-22T10:44:38.457Z,101724.27
2019-05-22T10:48:02.673Z,101723.16
2019-05-22T10:51:26.429Z,101721.59
2019-05-22T10:54:49.900Z,101710.80
2019-05-22T10:58:13.025Z,101713.23
2019-05-22T11:01:38.921Z,101706.52
2019-05-22T11:05:02.503Z,101711.19
2019-05-22T11:08:30.392Z,101710.88
2019-05-22T11:11:51.665Z,101712.19
2019-05-22T11:15:15.249Z,101703.08
2019-05-22T11:18:38.772Z,101712.38
2019-05-22T11:22:02.713Z,101718.88
2019-05-22T11:25:26.647Z,101705.86
2019-05-22T11:28:50.307Z,101709.27
2019-05-22T11:32:14.684Z,101714.47
2019-05-22T11:35:38.529Z,101716.92
2019-05-22T11:39:01.791Z,101715.76
2019-05-22T11:42:26.440Z,101703.47
2019-05-22T11:45:49.716Z,101704.84
2019-05-22T11:49:13.046Z,101699.95
2019-05-22T11:52:36.353Z,101690.58
2019-05-22T11:56:00.264Z,101689.33
2019-05-22T11:59:23.965Z,101687.83
2019-05-22T12:02:48.917Z,101689.30
2019-05-22T12:06:12.457Z,101685.70
2019-05-22T12:09:35.812Z,101690.44
2019-05-22T12:12:59.835Z,101682.35
2019-05-22T12:16:24.117Z,101670.70
2019-05-22T12:19:47.226Z,101667.91
2019-05-22T12:23:10.368Z,101670.89
2019-05-22T12:26:33.753Z,101679.58
2019-05-22T12:29:57.112Z,101677.05
2019-05-22T12:33:20.512Z,101677.77
2019-05-22T12:36:43.962Z,101680.29
2019-05-22T12:40:10.239Z,101683.42
2019-05-22T12:43:34.501Z,101687.84
2019-05-22T12:46:58.001Z,101672.36
2019-05-22T12:50:23.224Z,101677.39
2019-05-22T12:53:46.947Z,101674.06
2019-05-22T12:57:11.429Z,101665.94
2019-05-22T13:00:35.402Z,101666.27
2019-05-22T13:04:00.398Z,101667.27
2019-05-22T13:07:24.769Z,101666.50
2019-05-22T13:10:50.713Z,101662.48
2019-05-22T13:14:14.576Z,101659.98
2019-05-22T13:17:38.845Z,101661.24
2019-05-22T13:21:02.921Z,101652.41
2019-05-22T13:24:27.416Z,101649.52
2019-05-22T13:27:52.757Z,101647.37
2019-05-22T13:31:16.411Z,101653.69
2019-05-22T13:34:40.857Z,101650.42
2019-05-22T13:38:04.736Z,101645.84
2019-05-22T13:41:29.212Z,101633.84
2019-05-22T13:44:52.785Z,101643.16
2019-05-22T13:48:15.939Z,101632.98
2019-05-22T13:51:39.792Z,101633.92
2019-05-22T13:55:04.179Z,101629.79
2019-05-22T13:58:28.328Z,101636.22
2019-05-22T14:01:52.344Z,101634.29
2019-05-22T14:05:19.241Z,101635.82
2019-05-22T14:08:42.334Z,101634.08
2019-05-22T14:12:06.772Z,101640.77
2019-05-22T14:15:47.775Z,101640.93
2019-05-22T14:18:55.634Z,101641.72
2019-05-22T14:22:18.761Z,101638.91
2019-05-22T14:25:42.743Z,101631.67
2019-05-22T14:29:06.239Z,101633.95
2019-05-22T14:32:30.612Z,101636.63
2019-05-22T14:35:55.194Z,101635.60
2019-05-22T14:39:19.736Z,101629.36
2019-05-22T14:42:43.315Z,101629.92
2019-05-22T14:46:06.597Z,101632.58
2019-05-22T14:49:30.382Z,101630.39
2019-05-22T14:52:53.733Z,101633.36
2019-05-22T14:56:17.823Z,101629.65
2019-05-22T14:59:41.121Z,101630.06
2019-05-22T15:03:05.995Z,101622.59
2019-05-22T15:06:29.963Z,101627.03
2019-05-22T15:09:53.313Z,101627.42
2019-05-22T15:13:16.399Z,101623.09
2019-05-22T15:16:39.808Z,101615.70
2019-05-22T15:20:03.379Z,101613.67
2019-05-22T15:23:27.229Z,101609.41
2019-05-22T15:26:51.457Z,101611.98
2019-05-22T15:30:15.359Z,101615.88
2019-05-22T15:33:39.763Z,101608.69
2019-05-22T15:37:04.982Z,101606.46
2019-05-22T15:40:29.711Z,101593.73
2019-05-22T15:43:53.503Z,101598.84
2019-05-22T15:47:17.087Z,101593.44
2019-05-22T15:50:44.285Z,101586.42
2019-05-22T15:54:09.865Z,101581.84
2019-05-22T15:57:34.621Z,101588.17
2019-05-22T16:00:58.210Z,101580.28
2019-05-22T16:04:22.631Z,101593.23
2019-05-22T16:07:48.699Z,101585.84
2019-05-22T16:11:14.914Z,101588.09
2019-05-22T16:14:39.223Z,101589.28
2019-05-22T16:18:11.708Z,101594.41
2019-05-22T16:21:30.494Z,101593.75
2019-05-22T16:24:53.973Z,101587.27
2019-05-22T16:28:18.059Z,101585.83
2019-05-22T16:31:43.407Z,101584.14
2019-05-22T16:35:07.881Z,101588.63
2019-05-22T16:38:31.314Z,101585.59
2019-05-22T16:41:54.522Z,101580.64
2019-05-22T16:45:18.197Z,101578.54
2019-05-22T16:48:42.513Z,101573.83
2019-05-22T16:52:08.349Z,101577.96
2019-05-22T16:55:32.381Z,101580.89
2019-05-22T16:58:56.746Z,101569.61
2019-05-22T17:02:20.748Z,101563.34
2019-05-22T17:05:44.131Z,101562.17
2019-05-22T17:09:10.799Z,101576.65
2019-05-22T17:12:35.565Z,101575.41
2019-05-22T17:16:00.033Z,101568.80
2019-05-22T17:19:27.532Z,101570.95
2019-05-22T17:22:48.252Z,101574.87
2019-05-22T17:26:12.119Z,101570.72
2019-05-22T17:29:35.642Z,101569.52
2019-05-22T17:32:59.132Z,101566.55
2019-05-22T17:36:23.487Z,101571.55
2019-05-22T17:39:48.716Z,101565.72
2019-05-22T17:43:13.731Z,101566.20
2019-05-22T17:46:38.909Z,101569.01
2019-05-22T17:50:03.094Z,101564.66
2019-05-22T17:53:27.816Z,101568.76
2019-05-22T17:56:51.610Z,101566.34
2019-05-22T18:00:24.668Z,101568.27
2019-05-22T18:03:49.089Z,101569.16
2019-05-22T18:07:12.326Z,101568.18
2019-05-22T18:10:40.367Z,101570.93
2019-05-22T18:14:05.253Z,101570.86
2019-05-22T18:17:28.651Z,101567.02
2019-05-22T18:20:52.662Z,101568.05
2019-05-22T18:24:16.043Z,101567.94
2019-05-22T18:27:41.318Z,101572.32
2019-05-22T18:31:05.014Z,101567.03
2019-05-22T18:34:28.337Z,101572.20
2019-05-22T18:37:52.023Z,101569.88
2019-05-22T18:41:15.378Z,101565.91
2019-05-22T18:44:38.875Z,101567.62
2019-05-22T18:48:02.704Z,101573.46
2019-05-22T18:51:26.116Z,101574.30
2019-05-22T18:54:50.926Z,101572.17
2019-05-22T18:58:14.255Z,101576.25
2019-05-22T19:01:37.818Z,101580.29
2019-05-22T19:05:01.213Z,101575.55
2019-05-22T19:08:24.436Z,101575.88
2019-05-22T19:11:48.196Z,101586.11
2019-05-22T19:15:12.572Z,101581.55
2019-05-22T19:18:36.341Z,101591.53
2019-05-22T19:22:00.684Z,101592.91
2019-05-22T19:25:27.235Z,101593.06
2019-05-22T19:28:50.783Z,101600.38
2019-05-22T19:32:15.218Z,101606.91
2019-05-22T19:35:39.097Z,101608.98
2019-05-22T19:39:02.851Z,101609.30
2019-05-22T19:42:26.220Z,101610.80
2019-05-22T19:45:49.372Z,101612.99
2019-05-22T19:49:12.910Z,101613.72
2019-05-22T19:52:41.803Z,101623.83
2019-05-22T19:56:06.451Z,101621.90
2019-05-22T19:59:30.886Z,101626.11
2019-05-22T20:02:55.271Z,101635.89
2019-05-22T20:06:19.372Z,101630.70
2019-05-22T20:09:44.094Z,101633.45
2019-05-22T20:13:08.338Z,101641.39
2019-05-22T20:16:33.498Z,101639.03
2019-05-22T20:19:56.944Z,101633.94
2019-05-22T20:23:34.505Z,101638.14
2019-05-22T20:26:46.362Z,101644.16
2019-05-22T20:30:10.502Z,101638.70
2019-05-22T20:33:34.089Z,101643.76
2019-05-22T20:36:57.385Z,101645.09
2019-05-22T20:40:21.479Z,101642.88
2019-05-22T20:43:47.629Z,101648.16
2019-05-22T20:47:11.239Z,101648.13
2019-05-22T20:50:35.566Z,101650.14
2019-05-22T20:53:59.445Z,101645.25
2019-05-22T21:02:11.358Z,101645.16
2019-05-22T21:05:35.589Z,101641.55
2019-05-22T21:08:59.817Z,101649.98
2019-05-22T21:12:23.769Z,101653.41
2019-05-22T21:15:49.128Z,101654.31
2019-05-22T21:19:14.237Z,101658.89
2019-05-22T21:22:37.741Z,101660.59
2019-05-22T21:26:01.107Z,101665.28
2019-05-22T21:29:27.164Z,101670.41
2019-05-22T21:32:50.316Z,101669.00
2019-05-22T21:36:15.913Z,101666.47
2019-05-22T21:39:41.503Z,101669.81
2019-05-22T21:43:07.237Z,101668.54
2019-05-22T21:46:31.061Z,101669.70
2019-05-22T21:49:54.717Z,101668.13
2019-05-22T21:53:19.840Z,101666.80
2019-05-22T21:56:43.931Z,101668.78
2019-05-22T22:00:14.091Z,101671.19
2019-05-22T22:03:41.603Z,101675.64
2019-05-22T22:07:05.242Z,101670.70
2019-05-22T22:10:30.052Z,101675.13
2019-05-22T22:13:54.470Z,101672.80
2019-05-22T22:17:19.182Z,101677.16
2019-05-22T22:20:42.875Z,101686.28
2019-05-22T22:24:06.819Z,101684.34
2019-05-22T22:27:30.742Z,101689.71
2019-05-22T22:30:56.056Z,101689.00
2019-05-22T22:34:39.997Z,101689.71
2019-05-22T22:38:03.655Z,101694.55
2019-05-22T22:41:27.565Z,101693.27
2019-05-22T22:44:53.677Z,101696.50
2019-05-22T22:48:21.377Z,101696.84
2019-05-22T22:51:46.251Z,101695.25
2019-05-22T22:55:14.534Z,101690.08
2019-05-22T22:58:38.504Z,101697.67
2019-05-22T23:02:02.707Z,101691.53
2019-05-22T23:05:26.708Z,101697.38
2019-05-22T23:08:51.742Z,101696.94
2019-05-22T23:12:15.405Z,101697.03
2019-05-22T23:15:39.489Z,101699.95
2019-05-22T23:19:38.167Z,101689.40
2019-05-22T23:22:59.945Z,101694.82
2019-05-22T23:26:24.534Z,101688.66
2019-05-22T23:29:48.374Z,101682.31
2019-05-22T23:33:11.594Z,101685.88
2019-05-22T23:36:36.071Z,101688.69
2019-05-22T23:39:59.414Z,101686.46
2019-05-22T23:43:22.746Z,101684.83
2019-05-22T23:46:45.859Z,101689.31
2019-05-22T23:50:09.565Z,101688.61
2019-05-22T23:53:34.699Z,101690.73
2019-05-22T23:56:58.204Z,101688.25
